Time;durP1;ratioP1;P1;durP2;ratioP2;P2;SDS_P1;SDS_P2;PMS_P1;PMS_P2;Temp;Humidity;BMP_temperature;BMP_pressure;BME280_temperature;BME280_humidity;BME280_pressure;Samples;Min_cycle;Max_cycle;Signal;HPM_P1;HPM_P2
2023/08/22 00:01:23;;;;;;;12.93;4.57;;;18.60;99.90;;;;;;5041997;28;20061;-70
2023/08/22 00:03:49;;;;;;;11.05;4.45;;;18.60;99.90;;;;;;5011686;28;20048;-71
2023/08/22 00:06:15;;;;;;;12.73;4.30;;;18.60;99.90;;;;;;5046190;28;20044;-72
2023/08/22 00:08:42;;;;;;;12.32;4.30;;;18.60;99.90;;;;;;5013280;28;20680;-72
2023/08/22 00:11:08;;;;;;;11.70;4.65;;;18.60;99.90;;;;;;5041844;28;20045;-72
2023/08/22 00:13:34;;;;;;;11.35;4.20;;;18.70;99.90;;;;;;5015235;28;20053;-71
2023/08/22 00:16:00;;;;;;;9.60;3.85;;;18.60;99.90;;;;;;5038276;28;20045;-70
2023/08/22 00:18:27;;;;;;;12.13;4.60;;;18.60;99.90;;;;;;5015885;28;20052;-72
2023/08/22 00:20:53;;;;;;;10.52;4.00;;;18.60;99.90;;;;;;5040486;28;20061;-71
2023/08/22 00:23:19;;;;;;;11.07;4.20;;;18.60;99.90;;;;;;5012754;28;20057;-71
2023/08/22 00:25:45;;;;;;;10.38;3.83;;;18.60;99.90;;;;;;5034901;28;20059;-71
2023/08/22 00:28:11;;;;;;;9.90;3.67;;;18.60;99.90;;;;;;5014022;28;20053;-73
2023/08/22 00:30:38;;;;;;;10.77;4.13;;;18.60;99.90;;;;;;5042304;28;20056;-71
2023/08/22 00:33:04;;;;;;;13.73;4.18;;;18.60;99.90;;;;;;5012908;28;20111;-72
2023/08/22 00:35:31;;;;;;;14.82;3.92;;;18.60;99.90;;;;;;5049278;28;20041;-73
2023/08/22 00:37:57;;;;;;;12.63;4.57;;;18.60;99.90;;;;;;5010966;28;20056;-70
2023/08/22 00:40:23;;;;;;;13.70;4.80;;;18.60;99.90;;;;;;5043516;28;20049;-73
2023/08/22 00:42:50;;;;;;;19.55;4.60;;;18.60;99.90;;;;;;5013001;28;20154;-73
2023/08/22 00:45:16;;;;;;;12.70;4.10;;;18.60;99.90;;;;;;5043397;28;20057;-74
2023/08/22 00:47:43;;;;;;;11.60;4.50;;;18.50;99.90;;;;;;5010013;28;20037;-71
2023/08/22 00:50:10;;;;;;;10.05;3.72;;;18.40;99.90;;;;;;5072810;28;20055;-72
2023/08/22 00:52:36;;;;;;;11.35;4.45;;;18.40;99.90;;;;;;4998153;28;73393;-71
2023/08/22 00:55:02;;;;;;;12.70;4.80;;;18.30;99.90;;;;;;5045940;28;20056;-71
2023/08/22 00:57:29;;;;;;;11.30;4.50;;;18.30;99.90;;;;;;5010463;28;20095;-74
2023/08/22 00:59:55;;;;;;;14.70;5.65;;;18.30;99.90;;;;;;5054861;28;20393;-75
2023/08/22 01:02:21;;;;;;;11.85;4.72;;;18.20;99.90;;;;;;5011255;28;20427;-72
2023/08/22 01:04:47;;;;;;;12.05;4.70;;;18.20;99.90;;;;;;5058463;28;20062;-72
2023/08/22 01:07:45;;;;;;;11.50;4.40;;;18.20;99.90;;;;;;5012633;28;20048;-72
2023/08/22 01:10:28;;;;;;;12.75;5.05;;;18.10;99.90;;;;;;5029039;28;20136;-73
2023/08/22 01:12:59;;;;;;;12.57;4.75;;;18.10;99.90;;;;;;5009774;28;20044;-70
2023/08/22 01:15:28;;;;;;;10.65;4.65;;;18.10;99.90;;;;;;5042567;28;20045;-70
2023/08/22 01:17:56;;;;;;;10.88;4.57;;;18.10;99.90;;;;;;5013806;28;20055;-71
2023/08/22 01:20:24;;;;;;;11.15;4.50;;;18.20;99.90;;;;;;5050454;28;20045;-74
2023/08/22 01:22:51;;;;;;;10.52;4.13;;;18.20;99.90;;;;;;5013326;28;20063;-70
2023/08/22 01:25:17;;;;;;;14.00;5.28;;;18.20;99.90;;;;;;5041084;28;20053;-70
2023/08/22 01:28:14;;;;;;;13.80;5.68;;;18.20;99.90;;;;;;5002665;28;20053;-72
2023/08/22 01:31:04;;;;;;;11.63;5.43;;;18.20;99.90;;;;;;5044895;28;20053;-71
2023/08/22 01:33:34;;;;;;;12.13;4.82;;;18.20;99.90;;;;;;5004702;28;20075;-76
2023/08/22 01:36:02;;;;;;;11.73;5.13;;;18.20;99.90;;;;;;5042483;28;20048;-71
2023/08/22 01:38:29;;;;;;;12.07;5.55;;;18.20;99.90;;;;;;4999220;28;20060;-71
2023/08/22 01:40:57;;;;;;;13.55;5.28;;;18.10;99.90;;;;;;5042936;28;20052;-71
2023/08/22 01:43:23;;;;;;;13.73;5.22;;;18.10;99.90;;;;;;4998247;28;20057;-71
2023/08/22 01:45:49;;;;;;;13.20;5.18;;;18.10;99.90;;;;;;5029085;28;20057;-71
2023/08/22 01:48:15;;;;;;;12.55;5.47;;;18.10;99.90;;;;;;4989424;28;20561;-71
2023/08/22 01:50:41;;;;;;;14.27;5.28;;;18.10;99.90;;;;;;5061698;28;20688;-74
2023/08/22 01:53:08;;;;;;;13.35;5.20;;;18.10;99.90;;;;;;5011542;28;102049;-72
2023/08/22 01:55:34;;;;;;;12.52;5.50;;;18.10;99.90;;;;;;5034140;28;20057;-71
2023/08/22 01:58:00;;;;;;;16.65;6.28;;;18.20;99.90;;;;;;5013535;28;20052;-71
2023/08/22 02:00:26;;;;;;;11.10;4.85;;;18.10;99.90;;;;;;5044728;28;20045;-72
2023/08/22 02:02:52;;;;;;;11.70;5.28;;;18.10;99.90;;;;;;4999967;28;20052;-73
2023/08/22 02:05:18;;;;;;;11.75;5.07;;;18.10;99.90;;;;;;5043556;28;20570;-72
2023/08/22 02:07:45;;;;;;;13.18;5.30;;;18.10;99.90;;;;;;5018890;28;20055;-71
2023/08/22 02:10:11;;;;;;;11.70;5.60;;;18.00;99.90;;;;;;5043675;28;20068;-70
2023/08/22 02:12:37;;;;;;;10.93;5.05;;;18.00;99.90;;;;;;5009778;28;20056;-70
2023/08/22 02:15:03;;;;;;;17.58;5.82;;;18.00;99.90;;;;;;5046076;28;20519;-71
2023/08/22 02:17:29;;;;;;;14.63;5.70;;;17.90;99.90;;;;;;5011055;28;20040;-71
2023/08/22 02:19:56;;;;;;;14.32;5.47;;;17.90;99.90;;;;;;5048706;28;20052;-71
2023/08/22 02:22:22;;;;;;;15.90;5.95;;;17.90;99.90;;;;;;5008604;28;20045;-72
2023/08/22 02:24:48;;;;;;;12.38;5.57;;;17.80;99.90;;;;;;5043711;28;20057;-72
2023/08/22 02:27:14;;;;;;;14.00;5.97;;;17.80;99.90;;;;;;5005679;28;20453;-72
2023/08/22 02:29:40;;;;;;;12.95;6.13;;;17.80;99.90;;;;;;5055940;28;20049;-69
2023/08/22 02:32:06;;;;;;;14.18;6.80;;;17.70;99.90;;;;;;5004262;28;20640;-73
2023/08/22 02:34:32;;;;;;;17.90;6.95;;;17.70;99.90;;;;;;5034867;28;20049;-72
2023/08/22 02:36:58;;;;;;;12.13;6.07;;;17.70;99.90;;;;;;5003214;28;20533;-72
2023/08/22 02:39:24;;;;;;;15.90;6.35;;;17.60;99.90;;;;;;5053220;28;20090;-71
2023/08/22 02:41:50;;;;;;;15.87;7.00;;;17.60;99.90;;;;;;4930082;28;2101267;-73
2023/08/22 02:44:16;;;;;;;17.20;7.88;;;17.60;99.90;;;;;;5054301;28;20045;-70
2023/08/22 02:46:42;;;;;;;12.75;6.15;;;17.60;99.90;;;;;;4997227;28;20052;-72
2023/08/22 02:49:09;;;;;;;16.42;6.85;;;17.60;99.90;;;;;;5051578;28;20514;-71
2023/08/22 02:51:35;;;;;;;15.45;5.93;;;17.60;99.90;;;;;;5052796;28;20064;-71
2023/08/22 02:54:01;;;;;;;13.43;6.00;;;17.50;99.90;;;;;;5016598;28;99223;-71
2023/08/22 02:56:27;;;;;;;12.15;5.63;;;17.50;99.90;;;;;;5064547;28;20067;-72
2023/08/22 02:58:53;;;;;;;13.10;5.97;;;17.50;99.90;;;;;;5023291;28;20056;-70
2023/08/22 03:01:19;;;;;;;14.57;6.30;;;17.40;99.90;;;;;;5066366;28;20060;-72
2023/08/22 03:03:49;;;;;;;14.57;6.07;;;17.40;99.90;;;;;;5037170;28;20055;-70
2023/08/22 03:06:16;;;;;;;13.03;5.77;;;17.40;99.90;;;;;;5064111;28;20052;-71
2023/08/22 03:08:42;;;;;;;12.48;6.07;;;17.40;99.90;;;;;;5041351;28;20048;-70
2023/08/22 03:11:08;;;;;;;14.48;6.10;;;17.30;99.90;;;;;;5065217;28;20040;-70
2023/08/22 03:13:35;;;;;;;13.05;5.38;;;17.30;99.90;;;;;;5029379;28;20061;-72
2023/08/22 03:16:02;;;;;;;14.07;6.10;;;17.30;99.90;;;;;;5063668;28;20049;-71
2023/08/22 03:18:28;;;;;;;12.48;5.50;;;17.30;99.90;;;;;;5020629;28;20068;-74
2023/08/22 03:20:56;;;;;;;15.38;6.40;;;17.20;99.90;;;;;;5057715;28;20053;-71
2023/08/22 03:23:23;;;;;;;14.43;5.70;;;17.20;99.90;;;;;;5048034;28;20055;-71
2023/08/22 03:26:00;;;;;;;13.30;5.38;;;17.10;99.90;;;;;;5062860;28;20567;-71
2023/08/22 03:28:27;;;;;;;12.75;6.25;;;17.10;99.90;;;;;;5014323;28;20049;-70
2023/08/22 03:31:03;;;;;;;14.85;6.63;;;17.00;99.90;;;;;;5051691;28;20140;-71
2023/08/22 03:33:30;;;;;;;14.88;6.75;;;17.00;99.90;;;;;;5025358;28;20553;-75
2023/08/22 03:35:57;;;;;;;13.13;5.78;;;16.90;99.90;;;;;;5062701;28;20491;-70
2023/08/22 03:38:24;;;;;;;15.60;6.05;;;16.80;99.90;;;;;;5030105;28;20603;-74
2023/08/22 03:40:52;;;;;;;12.50;6.25;;;16.80;99.90;;;;;;5064191;28;20044;-70
2023/08/22 03:43:19;;;;;;;12.10;6.25;;;16.70;99.90;;;;;;5026781;28;20053;-71
2023/08/22 03:45:45;;;;;;;14.35;6.55;;;16.70;99.90;;;;;;5055656;28;20065;-71
2023/08/22 03:48:12;;;;;;;14.43;6.32;;;16.60;99.90;;;;;;5011638;28;20641;-73
2023/08/22 03:50:41;;;;;;;16.30;7.15;;;16.60;99.90;;;;;;5065141;28;20525;-70
2023/08/22 03:53:12;;;;;;;14.00;7.15;;;16.50;99.90;;;;;;5008529;28;112360;-71
2023/08/22 03:55:38;;;;;;;13.77;6.30;;;16.50;99.90;;;;;;5064853;28;20052;-72
2023/08/22 03:58:04;;;;;;;11.32;6.32;;;16.40;99.90;;;;;;5019320;28;20045;-71
2023/08/22 04:00:30;;;;;;;12.63;6.18;;;16.40;99.90;;;;;;5056313;28;20052;-71
2023/08/22 04:02:58;;;;;;;14.73;7.50;;;16.30;99.90;;;;;;5020080;28;20060;-71
2023/08/22 04:05:25;;;;;;;14.10;6.72;;;16.30;99.90;;;;;;5047699;28;20065;-70
2023/08/22 04:07:52;;;;;;;13.13;7.60;;;16.30;99.90;;;;;;5006033;28;20050;-70
2023/08/22 04:10:19;;;;;;;16.80;7.90;;;16.20;99.90;;;;;;5039896;28;20048;-71
2023/08/22 04:12:45;;;;;;;16.73;7.53;;;16.20;99.90;;;;;;5008992;28;20454;-70
2023/08/22 04:15:12;;;;;;;14.75;7.68;;;16.20;99.90;;;;;;5049290;28;20053;-70
2023/08/22 04:17:41;;;;;;;18.40;7.53;;;16.20;99.90;;;;;;5009417;28;20675;-70
2023/08/22 04:20:12;;;;;;;19.27;8.43;;;16.10;99.90;;;;;;5042339;28;20056;-71
2023/08/22 04:22:42;;;;;;;13.57;7.30;;;16.10;99.90;;;;;;5009368;28;20078;-73
2023/08/22 04:25:11;;;;;;;12.85;7.13;;;16.10;99.90;;;;;;5046010;28;20132;-71
2023/08/22 04:27:38;;;;;;;14.30;7.78;;;16.00;99.90;;;;;;5008401;28;20144;-71
2023/08/22 04:30:05;;;;;;;15.43;8.57;;;16.00;99.90;;;;;;5041263;28;20125;-71
2023/08/22 04:32:31;;;;;;;17.90;8.82;;;16.00;99.90;;;;;;5005622;28;20040;-72
2023/08/22 04:34:58;;;;;;;15.45;9.15;;;15.90;99.90;;;;;;5045963;28;20045;-71
2023/08/22 04:37:24;;;;;;;15.70;8.65;;;16.00;99.90;;;;;;5006164;28;20033;-71
2023/08/22 04:39:50;;;;;;;21.38;10.20;;;15.90;99.90;;;;;;5047228;28;20053;-71
2023/08/22 04:42:16;;;;;;;16.00;8.38;;;15.90;99.90;;;;;;5007363;28;20056;-71
2023/08/22 04:44:42;;;;;;;16.92;8.35;;;15.90;99.90;;;;;;5053323;28;20045;-72
2023/08/22 04:47:08;;;;;;;18.48;8.55;;;15.90;99.90;;;;;;4998207;28;20134;-71
2023/08/22 04:49:34;;;;;;;17.83;9.65;;;16.00;99.90;;;;;;5030798;28;20486;-70
2023/08/22 04:52:00;;;;;;;13.60;7.82;;;15.90;99.90;;;;;;4994679;28;20061;-70
2023/08/22 04:54:27;;;;;;;18.55;9.48;;;15.90;99.90;;;;;;5053003;28;20053;-70
2023/08/22 04:56:53;;;;;;;17.58;9.32;;;15.90;99.90;;;;;;4995397;28;20051;-70
2023/08/22 04:59:19;;;;;;;16.65;8.88;;;16.00;99.90;;;;;;5038118;28;20057;-70
2023/08/22 05:01:45;;;;;;;16.20;8.60;;;16.00;99.90;;;;;;4996864;28;157849;-70
2023/08/22 05:04:11;;;;;;;17.25;10.38;;;16.00;99.90;;;;;;5060369;28;20060;-72
2023/08/22 05:06:37;;;;;;;17.05;10.35;;;16.10;99.90;;;;;;5035363;28;20083;-70
2023/08/22 05:09:04;;;;;;;20.08;9.93;;;16.10;99.90;;;;;;5038661;28;20056;-70
2023/08/22 05:11:30;;;;;;;17.48;9.70;;;16.20;99.90;;;;;;5038642;28;20056;-70
2023/08/22 05:13:56;;;;;;;17.27;9.20;;;16.20;99.90;;;;;;5004119;28;20044;-70
2023/08/22 05:16:22;;;;;;;19.63;10.07;;;16.30;99.90;;;;;;5065162;28;20423;-70
2023/08/22 05:18:48;;;;;;;17.65;8.85;;;16.40;99.90;;;;;;5014106;28;20100;-71
2023/08/22 05:21:14;;;;;;;13.02;7.53;;;16.80;99.90;;;;;;5034214;28;20057;-70
2023/08/22 05:23:40;;;;;;;15.50;7.85;;;16.90;99.90;;;;;;4997392;28;20516;-70
2023/08/22 05:26:06;;;;;;;15.85;7.60;;;17.00;99.90;;;;;;5036711;28;20037;-71
2023/08/22 05:28:32;;;;;;;17.13;8.07;;;17.10;99.90;;;;;;5011074;28;20044;-72
2023/08/22 05:30:58;;;;;;;16.88;8.40;;;17.30;99.90;;;;;;5034333;28;20473;-69
2023/08/22 05:33:25;;;;;;;12.93;7.70;;;17.30;99.90;;;;;;5018278;28;20549;-70
2023/08/22 05:35:51;;;;;;;16.23;7.78;;;17.40;99.90;;;;;;5040412;28;20083;-70
2023/08/22 05:38:17;;;;;;;15.85;8.70;;;17.70;99.90;;;;;;5017755;28;20043;-70
2023/08/22 05:40:43;;;;;;;17.40;8.13;;;17.90;99.90;;;;;;5031421;28;20814;-70
2023/08/22 05:43:09;;;;;;;14.70;7.57;;;18.10;99.90;;;;;;5012918;28;20534;-70
2023/08/22 05:45:36;;;;;;;16.60;7.88;;;18.50;99.90;;;;;;5040008;28;20053;-69
2023/08/22 05:48:02;;;;;;;17.88;7.93;;;18.90;99.90;;;;;;5009846;28;20059;-72
2023/08/22 05:50:28;;;;;;;13.57;7.50;;;19.20;99.90;;;;;;5036820;28;20052;-70
2023/08/22 05:52:54;;;;;;;14.93;7.25;;;19.50;99.90;;;;;;4989916;28;248415;-73
2023/08/22 05:55:20;;;;;;;14.48;7.05;;;19.60;99.90;;;;;;5033141;28;20128;-72
2023/08/22 05:57:46;;;;;;;16.27;7.13;;;19.40;99.90;;;;;;5014617;28;20519;-71
2023/08/22 06:00:13;;;;;;;14.30;6.97;;;19.30;99.90;;;;;;5044551;28;20049;-71
2023/08/22 06:02:39;;;;;;;18.77;7.28;;;19.30;99.90;;;;;;5016394;28;20061;-71
2023/08/22 06:05:06;;;;;;;17.20;7.55;;;19.50;99.90;;;;;;5040166;28;20057;-71
2023/08/22 06:07:32;;;;;;;50.20;9.55;;;19.50;99.90;;;;;;5010539;28;20040;-71
2023/08/22 06:10:00;;;;;;;55.65;10.70;;;19.30;99.90;;;;;;5063833;28;20048;-71
2023/08/22 06:12:27;;;;;;;89.75;14.05;;;19.20;99.90;;;;;;5010671;28;20447;-71
2023/08/22 06:14:53;;;;;;;62.00;11.63;;;19.20;99.90;;;;;;5051852;28;20041;-71
2023/08/22 06:17:19;;;;;;;40.15;9.65;;;19.10;99.90;;;;;;5018371;28;20055;-71
2023/08/22 06:19:48;;;;;;;20.27;7.10;;;19.10;99.90;;;;;;5056736;28;20055;-71
2023/08/22 06:22:14;;;;;;;24.42;8.00;;;19.00;99.90;;;;;;5010966;28;20053;-72
2023/08/22 06:24:40;;;;;;;27.00;8.20;;;18.90;99.90;;;;;;5052225;28;20052;-73
2023/08/22 06:27:07;;;;;;;26.55;7.93;;;18.80;99.90;;;;;;5020009;28;20048;-74
2023/08/22 06:29:33;;;;;;;16.90;7.25;;;18.80;99.90;;;;;;5051812;28;20067;-71
2023/08/22 06:32:02;;;;;;;21.52;8.30;;;18.90;99.90;;;;;;5015723;28;20045;-70
2023/08/22 06:34:30;;;;;;;22.60;7.75;;;18.90;99.90;;;;;;5055262;28;20063;-71
2023/08/22 06:36:56;;;;;;;29.27;8.77;;;19.00;99.90;;;;;;5023040;28;20045;-75
2023/08/22 06:39:23;;;;;;;46.67;9.73;;;19.20;99.90;;;;;;5063452;28;20044;-71
2023/08/22 06:41:49;;;;;;;49.53;10.50;;;19.40;99.90;;;;;;5014476;28;20518;-73
2023/08/22 06:44:15;;;;;;;51.30;10.15;;;19.80;99.90;;;;;;5060378;28;20058;-71
2023/08/22 06:46:41;;;;;;;45.08;9.27;;;20.10;99.90;;;;;;5015025;28;20045;-73
2023/08/22 06:49:07;;;;;;;37.70;8.25;;;20.60;99.90;;;;;;5062560;28;20487;-72
2023/08/22 06:51:33;;;;;;;23.48;6.90;;;21.00;99.90;;;;;;5044706;28;20048;-71
2023/08/22 06:53:59;;;;;;;27.42;6.50;;;21.30;99.90;;;;;;5013012;28;146427;-70
2023/08/22 06:56:26;;;;;;;26.27;6.60;;;21.50;99.90;;;;;;5039178;28;20056;-70
2023/08/22 06:58:52;;;;;;;22.67;6.10;;;21.90;99.90;;;;;;5022182;28;20057;-72
2023/08/22 07:01:19;;;;;;;23.50;6.68;;;22.10;99.90;;;;;;5054985;28;20138;-71
2023/08/22 07:03:45;;;;;;;21.08;5.90;;;22.20;99.90;;;;;;5014170;28;20514;-71
2023/08/22 07:06:11;;;;;;;16.85;5.70;;;22.10;99.90;;;;;;5056483;28;20053;-70
2023/08/22 07:08:37;;;;;;;27.13;6.65;;;22.20;99.90;;;;;;5018506;28;20048;-73
2023/08/22 07:11:04;;;;;;;20.15;6.30;;;22.20;99.90;;;;;;5055712;28;20413;-70
2023/08/22 07:13:32;;;;;;;13.40;5.45;;;22.30;99.90;;;;;;5016061;28;20040;-73
2023/08/22 07:15:58;;;;;;;16.10;5.85;;;22.30;99.90;;;;;;5059697;28;20060;-69
2023/08/22 07:18:26;;;;;;;13.65;4.93;;;22.20;99.90;;;;;;5034015;28;20043;-72
2023/08/22 07:20:52;;;;;;;14.85;4.65;;;22.10;99.90;;;;;;5059067;28;20048;-71
2023/08/22 07:23:19;;;;;;;17.35;5.35;;;22.00;99.90;;;;;;5034605;28;20052;-72
2023/08/22 07:25:50;;;;;;;11.25;4.53;;;22.00;99.90;;;;;;5054967;28;20036;-74
2023/08/22 07:28:17;;;;;;;23.08;5.00;;;22.20;99.90;;;;;;5008045;28;20049;-70
2023/08/22 07:30:46;;;;;;;17.42;4.75;;;22.30;99.90;;;;;;5053042;28;20475;-71
2023/08/22 07:33:16;;;;;;;17.42;4.97;;;22.50;99.90;;;;;;5020031;28;20063;-74
2023/08/22 07:35:44;;;;;;;13.15;4.80;;;22.50;99.90;;;;;;5058731;28;20794;-73
2023/08/22 07:38:10;;;;;;;10.55;3.97;;;22.70;99.90;;;;;;5023858;28;20515;-73
2023/08/22 07:40:38;;;;;;;12.60;4.25;;;22.80;99.90;;;;;;5056388;28;20072;-71
2023/08/22 07:43:04;;;;;;;11.30;4.03;;;22.90;99.90;;;;;;5025093;28;20079;-70
2023/08/22 07:45:31;;;;;;;12.30;3.90;;;22.80;99.90;;;;;;5055093;28;20044;-71
2023/08/22 07:47:57;;;;;;;14.98;4.20;;;22.80;99.90;;;;;;5022510;28;20086;-72
2023/08/22 07:50:23;;;;;;;10.93;3.53;;;22.90;99.90;;;;;;5063204;28;20056;-71
2023/08/22 07:52:49;;;;;;;10.13;3.63;;;23.00;99.90;;;;;;5015764;28;207157;-72
2023/08/22 07:55:15;;;;;;;10.95;3.40;;;23.00;99.90;;;;;;5062248;28;20057;-70
2023/08/22 07:57:41;;;;;;;11.45;3.17;;;23.20;99.90;;;;;;5027105;28;20052;-71
2023/08/22 08:00:11;;;;;;;8.95;3.17;;;23.10;99.90;;;;;;5059635;28;20083;-69
2023/08/22 08:02:38;;;;;;;9.33;3.00;;;23.10;99.90;;;;;;5020969;28;20060;-72
2023/08/22 08:05:05;;;;;;;9.82;3.00;;;23.20;99.90;;;;;;5060013;28;20802;-70
2023/08/22 08:07:31;;;;;;;9.65;2.80;;;23.30;99.90;;;;;;5024984;28;20613;-73
2023/08/22 08:09:58;;;;;;;10.40;2.97;;;23.30;99.90;;;;;;5058621;28;20059;-69
2023/08/22 08:12:24;;;;;;;10.77;3.03;;;23.10;99.90;;;;;;5018243;28;20048;-72
2023/08/22 08:14:50;;;;;;;12.07;2.97;;;23.00;99.90;;;;;;5049135;28;20570;-71
2023/08/22 08:17:18;;;;;;;20.50;3.58;;;22.90;99.90;;;;;;5026679;28;20052;-72
2023/08/22 08:19:44;;;;;;;45.42;5.05;;;22.90;99.90;;;;;;5068661;28;21682;-71
2023/08/22 08:22:13;;;;;;;70.18;7.25;;;23.00;99.90;;;;;;5000130;28;20045;-73
2023/08/22 08:24:39;;;;;;;18.48;3.50;;;23.10;99.90;;;;;;5050779;28;20056;-72
2023/08/22 08:27:06;;;;;;;20.40;4.00;;;23.10;99.90;;;;;;5020920;28;20052;-71
2023/08/22 08:29:32;;;;;;;46.80;5.32;;;23.20;99.90;;;;;;5061774;28;20044;-72
2023/08/22 08:31:58;;;;;;;148.63;13.48;;;23.30;99.90;;;;;;5023185;28;20058;-73
2023/08/22 08:34:25;;;;;;;51.42;6.05;;;23.30;99.90;;;;;;5057483;28;20052;-71
2023/08/22 08:36:51;;;;;;;33.83;4.72;;;23.30;99.90;;;;;;5019958;28;20407;-72
2023/08/22 08:39:20;;;;;;;13.05;2.40;;;23.40;99.90;;;;;;5056413;28;20055;-71
2023/08/22 08:42:09;;;;;;;14.45;2.65;;;23.40;99.90;;;;;;5025650;28;20060;-70
2023/08/22 08:44:36;;;;;;;43.80;5.40;;;23.30;99.80;;;;;;5045234;28;20052;-72
2023/08/22 08:47:03;;;;;;;19.40;2.58;;;23.40;99.00;;;;;;5024872;28;20052;-70
2023/08/22 08:49:32;;;;;;;18.08;2.40;;;23.40;99.40;;;;;;5068082;28;20075;-69
2023/08/22 08:52:02;;;;;;;7.30;1.67;;;23.70;99.20;;;;;;5007410;28;105481;-70
2023/08/22 08:54:28;;;;;;;8.90;2.15;;;23.60;98.40;;;;;;5062223;28;20048;-71
2023/08/22 08:56:55;;;;;;;10.57;2.25;;;23.50;99.10;;;;;;5023402;28;20558;-71
2023/08/22 08:59:22;;;;;;;19.95;4.50;;;23.70;99.10;;;;;;5072365;28;20065;-72
2023/08/22 09:01:52;;;;;;;11.10;2.67;;;23.90;99.00;;;;;;5022242;28;20063;-72
2023/08/22 09:04:22;;;;;;;7.40;1.75;;;24.70;98.10;;;;;;5063177;28;20123;-70
2023/08/22 09:06:48;;;;;;;13.68;1.70;;;25.30;97.50;;;;;;5025892;28;20056;-70
2023/08/22 09:09:15;;;;;;;8.75;1.77;;;25.70;96.90;;;;;;5068730;28;20064;-70
2023/08/22 09:11:43;;;;;;;7.63;1.42;;;25.90;97.20;;;;;;5022225;28;20055;-71
2023/08/22 09:14:10;;;;;;;8.90;1.50;;;26.40;95.40;;;;;;5055629;28;20057;-70
2023/08/22 09:16:36;;;;;;;5.63;1.30;;;26.90;96.20;;;;;;5050784;28;20052;-72
2023/08/22 09:19:03;;;;;;;7.43;1.20;;;27.40;94.90;;;;;;5044881;28;20045;-71
2023/08/22 09:21:29;;;;;;;5.85;1.23;;;27.60;94.90;;;;;;5057569;28;20052;-70
2023/08/22 09:24:23;;;;;;;9.13;1.55;;;28.10;95.00;;;;;;5032628;28;20049;-70
2023/08/22 09:26:49;;;;;;;22.90;2.40;;;28.50;92.60;;;;;;5018829;28;20057;-70
2023/08/22 09:29:15;;;;;;;8.20;1.65;;;28.30;93.10;;;;;;5067987;28;20048;-73
2023/08/22 09:31:41;;;;;;;22.13;2.40;;;28.00;93.50;;;;;;5011191;28;20064;-74
2023/08/22 09:34:09;;;;;;;15.02;2.08;;;28.20;93.90;;;;;;5037805;28;20528;-71
2023/08/22 09:36:45;;;;;;;51.83;4.47;;;28.60;93.70;;;;;;5032603;28;20056;-71
2023/08/22 09:39:19;;;;;;;45.97;3.72;;;28.30;92.20;;;;;;5033689;28;20048;-70
2023/08/22 09:42:00;;;;;;;23.95;3.55;;;27.80;92.50;;;;;;5022177;28;20053;-70
2023/08/22 09:44:29;;;;;;;33.10;3.38;;;27.50;93.30;;;;;;5060423;28;20052;-71
2023/08/22 09:46:56;;;;;;;23.27;3.28;;;27.10;93.60;;;;;;5013808;28;20065;-71
2023/08/22 09:49:23;;;;;;;15.32;2.90;;;26.90;94.00;;;;;;5063398;28;20048;-71
2023/08/22 09:51:51;;;;;;;22.02;3.75;;;26.80;93.90;;;;;;5010512;28;120410;-71
2023/08/22 09:54:17;;;;;;;13.75;3.50;;;26.70;94.00;;;;;;5057729;28;21131;-71
2023/08/22 09:56:45;;;;;;;17.50;3.78;;;26.60;93.90;;;;;;5025217;28;20049;-70
2023/08/22 09:59:17;;;;;;;25.02;4.28;;;27.30;93.30;;;;;;5049648;28;20053;-72
2023/08/22 10:01:43;;;;;;;21.45;4.13;;;27.50;93.20;;;;;;5013323;28;20049;-74
2023/08/22 10:04:10;;;;;;;13.85;4.50;;;27.70;93.00;;;;;;5054091;28;20060;-70
2023/08/22 10:06:37;;;;;;;13.65;4.90;;;27.60;93.60;;;;;;5041660;28;20067;-66
2023/08/22 10:09:10;;;;;;;11.75;4.72;;;27.80;93.50;;;;;;5046679;28;20052;-70
2023/08/22 10:11:50;;;;;;;11.88;4.07;;;27.90;93.70;;;;;;5042973;28;20064;-66
2023/08/22 10:14:48;;;;;;;12.43;3.92;;;27.70;93.90;;;;;;5020929;28;20049;-70
2023/08/22 10:17:14;;;;;;;9.95;3.90;;;28.10;93.20;;;;;;5006592;28;20059;-70
2023/08/22 10:19:44;;;;;;;11.20;3.83;;;27.90;93.60;;;;;;5053992;28;20052;-70
2023/08/22 10:22:13;;;;;;;12.90;3.83;;;28.00;93.40;;;;;;5008992;28;20045;-71
2023/08/22 10:24:41;;;;;;;15.38;3.95;;;28.00;93.50;;;;;;5060302;28;20049;-70
2023/08/22 10:27:16;;;;;;;13.75;4.25;;;27.70;93.40;;;;;;5010883;28;20056;-71
2023/08/22 10:29:45;;;;;;;11.40;4.18;;;27.60;93.10;;;;;;5051188;28;20057;-69
2023/08/22 10:32:11;;;;;;;12.63;4.72;;;27.60;93.10;;;;;;5002649;28;20051;-70
2023/08/22 10:34:40;;;;;;;18.15;4.63;;;27.40;93.20;;;;;;5052599;28;20059;-71
2023/08/22 10:37:16;;;;;;;12.43;4.60;;;27.30;93.80;;;;;;5002728;28;20045;-71
2023/08/22 10:39:43;;;;;;;12.40;4.18;;;27.70;92.80;;;;;;5054815;28;20052;-73
2023/08/22 10:42:19;;;;;;;10.60;3.75;;;28.10;93.40;;;;;;4999840;28;20049;-72
2023/08/22 10:44:53;;;;;;;10.00;3.15;;;28.70;92.80;;;;;;5045274;28;20125;-70
2023/08/22 10:47:21;;;;;;;12.30;3.20;;;28.90;92.40;;;;;;5000400;28;20049;-70
2023/08/22 10:49:55;;;;;;;10.68;2.90;;;28.80;91.80;;;;;;5046966;28;20052;-70
2023/08/22 10:52:36;;;;;;;16.38;3.83;;;29.00;92.50;;;;;;4988048;28;252758;-70
2023/08/22 10:55:11;;;;;;;11.93;3.42;;;29.40;92.00;;;;;;5038613;28;20053;-70
2023/08/22 10:57:40;;;;;;;19.10;3.83;;;29.50;92.30;;;;;;5004577;28;20056;-70
2023/08/22 11:00:14;;;;;;;8.93;2.65;;;29.90;92.40;;;;;;5032726;28;20053;-71
2023/08/22 11:02:42;;;;;;;12.00;2.90;;;29.70;92.20;;;;;;5011294;28;20048;-70
2023/08/22 11:05:11;;;;;;;12.20;2.80;;;29.50;92.10;;;;;;5046115;28;20052;-70
2023/08/22 11:07:48;;;;;;;9.02;2.70;;;29.50;91.80;;;;;;5005191;28;20068;-71
2023/08/22 11:10:16;;;;;;;9.52;2.60;;;29.70;91.70;;;;;;5043554;28;20072;-73
2023/08/22 11:12:45;;;;;;;10.93;2.50;;;29.70;92.30;;;;;;5012708;28;20052;-71
2023/08/22 11:15:13;;;;;;;8.45;2.05;;;29.90;91.60;;;;;;5047288;28;20755;-71
2023/08/22 11:17:40;;;;;;;7.20;1.90;;;30.10;91.90;;;;;;5010752;28;20542;-71
2023/08/22 11:20:11;;;;;;;11.48;2.22;;;30.10;91.30;;;;;;5049678;28;20060;-72
2023/08/22 11:22:42;;;;;;;11.48;2.40;;;29.90;91.00;;;;;;5015643;28;20060;-72
2023/08/22 11:25:10;;;;;;;9.88;1.90;;;29.80;90.90;;;;;;5052652;28;20085;-70
2023/08/22 11:27:38;;;;;;;9.00;1.77;;;29.70;91.00;;;;;;5010108;28;20056;-73
2023/08/22 11:30:04;;;;;;;8.23;1.80;;;29.90;90.80;;;;;;5050636;28;20068;-71
2023/08/22 11:32:32;;;;;;;7.95;1.90;;;30.30;91.00;;;;;;5009049;28;20052;-72
2023/08/22 11:35:04;;;;;;;6.47;1.80;;;30.10;90.60;;;;;;5052787;28;20040;-71
2023/08/22 11:37:32;;;;;;;8.52;1.95;;;30.00;90.80;;;;;;5020638;28;20040;-73
2023/08/22 11:39:59;;;;;;;9.18;1.60;;;30.00;91.10;;;;;;5057182;28;20063;-71
2023/08/22 11:42:29;;;;;;;14.63;2.15;;;30.50;90.70;;;;;;5012249;28;20044;-71
2023/08/22 11:45:04;;;;;;;8.55;1.80;;;31.20;90.90;;;;;;5049914;28;20052;-71
2023/08/22 11:47:46;;;;;;;9.85;2.00;;;31.40;90.30;;;;;;5001438;28;20055;-73
2023/08/22 11:50:14;;;;;;;15.77;2.97;;;30.80;90.10;;;;;;5039316;28;20053;-71
2023/08/22 11:52:42;;;;;;;8.38;1.77;;;30.60;90.80;;;;;;5002873;28;20063;-71
2023/08/22 11:55:09;;;;;;;6.03;1.67;;;30.60;90.00;;;;;;5055564;28;20062;-73
2023/08/22 11:57:39;;;;;;;10.90;2.20;;;30.80;90.10;;;;;;5009367;28;20071;-70
2023/08/22 12:00:09;;;;;;;8.98;2.00;;;30.80;90.30;;;;;;5059317;28;20431;-71
2023/08/22 12:02:35;;;;;;;10.20;1.90;;;30.60;89.90;;;;;;5022322;28;20075;-71
2023/08/22 12:05:03;;;;;;;9.70;1.85;;;29.90;90.60;;;;;;5066945;28;20147;-70
2023/08/22 12:07:40;;;;;;;7.28;1.90;;;30.10;89.90;;;;;;5027591;28;20040;-73
2023/08/22 12:10:07;;;;;;;8.35;2.00;;;30.20;90.30;;;;;;5061260;28;20051;-73
2023/08/22 12:12:33;;;;;;;8.25;1.98;;;30.00;90.70;;;;;;5022705;28;20400;-71
2023/08/22 12:15:00;;;;;;;8.98;2.08;;;30.20;90.70;;;;;;5029923;28;20052;-71
2023/08/22 12:17:26;;;;;;;8.32;1.90;;;29.80;90.20;;;;;;4999670;28;20049;-70
2023/08/22 12:19:52;;;;;;;7.38;1.60;;;29.40;90.40;;;;;;5050725;28;20055;-71
2023/08/22 12:22:18;;;;;;;9.25;2.03;;;29.70;90.50;;;;;;5025917;28;20044;-76
2023/08/22 12:24:45;;;;;;;9.50;1.85;;;29.50;90.20;;;;;;5064965;28;20061;-70
2023/08/22 12:27:12;;;;;;;8.95;2.15;;;29.10;90.60;;;;;;5021356;28;20056;-74
2023/08/22 12:29:39;;;;;;;7.57;1.70;;;29.00;90.90;;;;;;5053718;28;20057;-70
2023/08/22 12:32:06;;;;;;;9.95;1.83;;;28.90;90.80;;;;;;5015881;28;20045;-73
2023/08/22 12:34:33;;;;;;;9.45;1.70;;;29.40;90.80;;;;;;5060522;28;21529;-71
2023/08/22 12:36:59;;;;;;;9.70;1.90;;;29.60;90.00;;;;;;5022148;28;20710;-71
2023/08/22 12:39:25;;;;;;;8.63;1.60;;;29.50;90.40;;;;;;5063602;28;20055;-70
2023/08/22 12:41:51;;;;;;;8.73;1.70;;;29.30;90.20;;;;;;5023629;28;20099;-77